Time;durP1;ratioP1;P1;durP2;ratioP2;P2;SDS_P1;SDS_P2;PMS_P1;PMS_P2;Temp;Humidity;BMP_temperature;BMP_pressure;BME280_temperature;BME280_humidity;BME280_pressure;Samples;Min_cycle;Max_cycle;Signal;HPM_P1;HPM_P2
2023/09/29 00:01:35;;;;;;;1.88;0.73;;;19.20;1.00;;;;;;5085801;28;20523;-77
2023/09/29 00:04:04;;;;;;;1.52;1.00;;;19.20;99.90;;;;;;5072618;28;20237;-77
2023/09/29 00:06:34;;;;;;;1.38;0.70;;;19.20;99.90;;;;;;5085187;28;20051;-77
2023/09/29 00:09:02;;;;;;;1.15;0.70;;;19.20;99.90;;;;;;5081460;28;20539;-77
2023/09/29 00:11:31;;;;;;;1.98;1.27;;;19.20;99.90;;;;;;5081587;28;20328;-76
2023/09/29 00:13:58;;;;;;;2.13;1.05;;;19.20;99.90;;;;;;5057243;28;20068;-77
2023/09/29 00:16:25;;;;;;;2.00;0.90;;;19.20;99.90;;;;;;5085241;28;20051;-77
2023/09/29 00:18:52;;;;;;;1.60;1.15;;;19.10;1.00;;;;;;5065807;28;20282;-77
2023/09/29 00:21:19;;;;;;;1.90;0.80;;;19.10;1.00;;;;;;5062871;28;20186;-78
2023/09/29 00:23:46;;;;;;;1.42;0.88;;;19.10;22.00;;;;;;5084972;28;20058;-77
2023/09/29 00:26:14;;;;;;;1.70;0.82;;;19.10;99.90;;;;;;5051184;28;20474;-77
2023/09/29 00:28:40;;;;;;;1.13;0.75;;;19.10;99.90;;;;;;5085954;28;20094;-77
2023/09/29 00:31:08;;;;;;;1.88;0.80;;;19.10;99.90;;;;;;5068345;28;20372;-77
2023/09/29 00:33:35;;;;;;;1.80;1.10;;;19.10;99.90;;;;;;5051675;28;20365;-77
2023/09/29 00:36:02;;;;;;;2.00;1.00;;;19.10;99.90;;;;;;5086257;28;20051;-77
2023/09/29 00:38:29;;;;;;;1.30;0.85;;;19.20;99.90;;;;;;5083124;28;20076;-77
2023/09/29 00:40:57;;;;;;;1.40;0.85;;;19.20;99.90;;;;;;5084872;28;20074;-77
2023/09/29 00:43:23;;;;;;;1.48;0.75;;;19.10;1.00;;;;;;5083910;28;20053;-77
2023/09/29 00:45:50;;;;;;;1.70;0.77;;;19.10;99.90;;;;;;5083689;28;20051;-77
2023/09/29 00:48:17;;;;;;;1.33;0.73;;;19.10;99.90;;;;;;5081290;28;20574;-77
2023/09/29 00:50:45;;;;;;;1.25;0.77;;;19.10;1.00;;;;;;5064687;28;20040;-77
2023/09/29 00:53:13;;;;;;;1.55;1.00;;;19.00;74.50;;;;;;5047866;28;20449;-77
2023/09/29 00:55:41;;;;;;;0.93;0.70;;;19.00;99.90;;;;;;5051592;28;20629;-77
2023/09/29 00:58:09;;;;;;;1.58;0.90;;;18.90;99.90;;;;;;5067497;28;20055;-77
2023/09/29 01:00:37;;;;;;;2.05;0.80;;;18.80;99.90;;;;;;5084325;28;20044;-77
2023/09/29 01:03:10;;;;;;;1.77;0.77;;;18.80;1.00;;;;;;5046773;28;20105;-77
2023/09/29 01:05:42;;;;;;;1.60;0.80;;;18.80;1.00;;;;;;5047895;28;20052;-77
2023/09/29 01:08:12;;;;;;;1.60;1.00;;;18.80;1.00;;;;;;5065453;28;20078;-77
2023/09/29 01:10:40;;;;;;;1.90;0.90;;;18.80;1.90;;;;;;5067785;28;20043;-77
2023/09/29 01:13:07;;;;;;;3.03;0.90;;;18.80;8.70;;;;;;5066882;28;20044;-77
2023/09/29 01:15:36;;;;;;;1.30;0.70;;;18.80;31.60;;;;;;5067782;28;20044;-76
2023/09/29 01:18:03;;;;;;;2.00;0.90;;;18.80;41.60;;;;;;5032202;28;20139;-77
2023/09/29 01:20:30;;;;;;;1.40;0.80;;;18.80;72.10;;;;;;5037546;28;20279;-77
2023/09/29 01:22:58;;;;;;;1.65;0.93;;;18.80;91.90;;;;;;5066996;28;20052;-77
2023/09/29 01:25:24;;;;;;;1.20;0.70;;;18.80;99.90;;;;;;5064770;28;20491;-77
2023/09/29 01:27:52;;;;;;;1.17;0.65;;;18.80;99.90;;;;;;5068491;28;20056;-76
2023/09/29 01:30:19;;;;;;;1.23;0.85;;;18.80;99.90;;;;;;5042180;28;20422;-77
2023/09/29 01:32:50;;;;;;;1.45;0.70;;;18.80;99.90;;;;;;5071160;28;20079;-77
2023/09/29 01:35:17;;;;;;;0.98;0.85;;;18.90;99.90;;;;;;5030690;28;20040;-77
2023/09/29 01:37:45;;;;;;;0.98;0.68;;;18.90;99.90;;;;;;5061836;28;20044;-76
2023/09/29 01:40:12;;;;;;;1.25;0.70;;;18.90;99.90;;;;;;5076133;28;20105;-77
2023/09/29 01:42:40;;;;;;;0.95;0.68;;;18.90;99.90;;;;;;5050171;28;20124;-77
2023/09/29 01:45:08;;;;;;;1.42;0.90;;;18.90;94.50;;;;;;5078362;28;20107;-77
2023/09/29 01:47:38;;;;;;;1.23;0.63;;;18.90;90.60;;;;;;5065959;28;20381;-77
2023/09/29 01:50:06;;;;;;;0.93;0.65;;;19.00;47.50;;;;;;5033858;28;20048;-77
2023/09/29 01:52:33;;;;;;;1.83;1.02;;;19.00;25.90;;;;;;5067630;28;20048;-77
2023/09/29 01:55:05;;;;;;;1.90;1.10;;;19.00;7.30;;;;;;5065530;28;20109;-76
2023/09/29 01:57:31;;;;;;;1.65;1.02;;;19.00;1.00;;;;;;5065532;28;20055;-77
2023/09/29 01:59:58;;;;;;;1.15;0.70;;;19.00;1.00;;;;;;5084805;28;20480;-77
2023/09/29 02:02:25;;;;;;;2.60;0.93;;;19.10;1.00;;;;;;5082641;28;20502;-76
2023/09/29 02:04:55;;;;;;;1.48;0.80;;;19.10;1.00;;;;;;5084203;28;20047;-77
2023/09/29 02:07:24;;;;;;;2.03;0.80;;;19.10;1.00;;;;;;5081545;28;20047;-77
2023/09/29 02:09:51;;;;;;;0.82;0.57;;;19.10;1.00;;;;;;5082493;28;20056;-77
2023/09/29 02:12:18;;;;;;;1.75;1.00;;;19.10;1.00;;;;;;5066390;28;20047;-77
2023/09/29 02:14:45;;;;;;;1.02;0.68;;;19.10;1.00;;;;;;5083337;28;20044;-77
2023/09/29 02:17:12;;;;;;;1.45;0.77;;;19.00;1.00;;;;;;5066295;28;20396;-77
2023/09/29 02:19:38;;;;;;;0.73;0.60;;;19.00;1.00;;;;;;5083704;28;20044;-77
2023/09/29 02:22:06;;;;;;;0.68;0.60;;;19.00;30.80;;;;;;5064850;28;20117;-77
2023/09/29 02:24:33;;;;;;;1.50;0.65;;;19.00;43.40;;;;;;5048633;28;20044;-77
2023/09/29 02:27:00;;;;;;;2.03;0.77;;;19.00;85.60;;;;;;5065136;28;20048;-76
2023/09/29 02:29:28;;;;;;;1.45;0.57;;;19.00;99.90;;;;;;5067340;28;20040;-77
2023/09/29 02:31:58;;;;;;;1.45;0.60;;;19.00;99.90;;;;;;5082038;28;20059;-76
2023/09/29 02:34:25;;;;;;;0.98;0.60;;;18.90;99.90;;;;;;5048976;28;20048;-79
2023/09/29 02:36:52;;;;;;;0.85;0.52;;;18.90;99.90;;;;;;5029870;28;20120;-77
2023/09/29 02:39:19;;;;;;;0.73;0.50;;;19.00;99.90;;;;;;5065494;28;20715;-76
2023/09/29 02:41:46;;;;;;;0.52;0.50;;;18.90;99.90;;;;;;5065104;28;20052;-76
2023/09/29 02:44:13;;;;;;;0.85;0.60;;;18.90;99.90;;;;;;5047006;28;20214;-76
2023/09/29 02:46:40;;;;;;;0.85;0.43;;;18.90;99.90;;;;;;5082532;28;20113;-76
2023/09/29 02:49:07;;;;;;;0.40;0.40;;;19.00;99.90;;;;;;5066556;28;20434;-76
2023/09/29 02:51:34;;;;;;;0.60;0.60;;;19.00;99.90;;;;;;5069287;28;20044;-76
2023/09/29 02:54:03;;;;;;;1.15;0.60;;;19.00;99.90;;;;;;5082761;28;20055;-77
2023/09/29 02:56:30;;;;;;;0.65;0.50;;;19.00;99.90;;;;;;5083504;28;20083;-77
2023/09/29 02:58:57;;;;;;;0.65;0.50;;;19.00;99.90;;;;;;5083209;28;20048;-76
2023/09/29 03:01:24;;;;;;;1.15;0.50;;;19.00;99.90;;;;;;5047355;28;20129;-76
2023/09/29 03:03:54;;;;;;;0.85;0.50;;;19.00;99.90;;;;;;5077533;28;20040;-77
2023/09/29 03:06:23;;;;;;;0.80;0.52;;;18.90;99.90;;;;;;5066222;28;20147;-76
2023/09/29 03:08:54;;;;;;;0.57;0.40;;;18.90;99.90;;;;;;5081168;28;20052;-76
2023/09/29 03:11:22;;;;;;;0.57;0.40;;;18.90;1.00;;;;;;5032143;28;20133;-77
2023/09/29 03:13:49;;;;;;;0.38;0.32;;;18.80;1.00;;;;;;5076908;28;20279;-76
2023/09/29 03:16:18;;;;;;;0.30;0.30;;;18.80;99.90;;;;;;5049692;28;20040;-76
2023/09/29 03:18:46;;;;;;;0.38;0.30;;;18.80;99.90;;;;;;5083856;28;20669;-76
2023/09/29 03:21:13;;;;;;;0.40;0.38;;;18.80;99.90;;;;;;5084246;28;20098;-76
2023/09/29 03:23:42;;;;;;;0.40;0.30;;;18.80;99.90;;;;;;5064798;28;20132;-76
2023/09/29 03:26:09;;;;;;;0.32;0.30;;;18.70;99.90;;;;;;5075700;28;20063;-76
2023/09/29 03:28:36;;;;;;;0.30;0.30;;;18.80;1.00;;;;;;5050300;28;20055;-77
2023/09/29 03:31:09;;;;;;;0.40;0.40;;;18.70;1.00;;;;;;5067658;28;20074;-76
2023/09/29 03:33:36;;;;;;;0.38;0.38;;;18.70;1.00;;;;;;5083541;28;20048;-76
2023/09/29 03:36:03;;;;;;;0.45;0.40;;;18.70;1.00;;;;;;5086151;28;20051;-76
2023/09/29 03:38:31;;;;;;;0.20;0.20;;;18.70;1.00;;;;;;5086343;28;20072;-76
2023/09/29 03:40:58;;;;;;;0.30;0.30;;;18.70;13.40;;;;;;5069589;28;20109;-77
2023/09/29 03:43:25;;;;;;;0.30;0.30;;;18.70;16.00;;;;;;5069151;28;20056;-76
2023/09/29 03:45:53;;;;;;;0.30;0.30;;;18.70;23.30;;;;;;5069641;28;20750;-76
2023/09/29 03:48:20;;;;;;;0.40;0.30;;;18.70;26.50;;;;;;5069090;28;20621;-77
2023/09/29 03:50:49;;;;;;;0.30;0.30;;;18.80;38.30;;;;;;5085861;28;20059;-76
2023/09/29 03:53:17;;;;;;;0.82;0.50;;;18.70;1.00;;;;;;5051588;28;20051;-76
2023/09/29 03:55:47;;;;;;;0.85;0.30;;;18.30;99.90;;;;;;5085667;28;20044;-76
2023/09/29 03:58:16;;;;;;;0.22;0.20;;;17.90;99.90;;;;;;5066845;28;20049;-77
2023/09/29 04:00:43;;;;;;;0.30;0.30;;;17.70;1.00;;;;;;5086620;28;20441;-76
2023/09/29 04:03:10;;;;;;;0.45;0.30;;;17.50;35.40;;;;;;5073372;28;20043;-76
2023/09/29 04:05:37;;;;;;;0.30;0.30;;;17.50;73.90;;;;;;5070873;28;20044;-76
2023/09/29 04:08:05;;;;;;;0.43;0.30;;;17.40;95.30;;;;;;5086362;28;20134;-77
2023/09/29 04:10:32;;;;;;;0.30;0.30;;;17.30;99.90;;;;;;5088444;28;20074;-76
2023/09/29 04:12:59;;;;;;;0.32;0.20;;;17.20;99.90;;;;;;5086476;28;20066;-75
2023/09/29 04:15:27;;;;;;;0.20;0.20;;;17.20;99.90;;;;;;5087838;28;20040;-76
2023/09/29 04:17:54;;;;;;;0.20;0.20;;;17.20;99.90;;;;;;5088352;28;20116;-76
2023/09/29 04:20:21;;;;;;;0.43;0.40;;;17.10;99.90;;;;;;5070874;28;20056;-75
2023/09/29 04:22:48;;;;;;;0.20;0.20;;;17.10;99.90;;;;;;5051459;28;20061;-76
2023/09/29 04:25:16;;;;;;;0.38;0.30;;;17.10;99.90;;;;;;5070519;28;20499;-76
2023/09/29 04:27:44;;;;;;;0.20;0.20;;;17.10;99.90;;;;;;5087227;28;20117;-76
2023/09/29 04:32:47;;;;;;;0.20;0.20;;;17.00;99.90;;;;;;5512032;22;20059;-78
2023/09/29 04:35:15;;;;;;;0.20;0.20;;;17.00;99.90;;;;;;5076130;28;20101;-79
2023/09/29 04:37:41;;;;;;;0.30;0.30;;;17.00;99.90;;;;;;5071388;28;20076;-76
2023/09/29 04:40:08;;;;;;;0.30;0.30;;;17.00;99.90;;;;;;5054133;28;20587;-76
2023/09/29 04:42:36;;;;;;;0.20;0.20;;;16.90;99.90;;;;;;5074925;28;20063;-76
2023/09/29 04:45:03;;;;;;;0.15;0.15;;;16.90;99.90;;;;;;5074840;28;20069;-75
2023/09/29 04:47:30;;;;;;;0.25;0.25;;;16.90;99.90;;;;;;5086258;28;20047;-76
2023/09/29 04:49:58;;;;;;;0.25;0.25;;;16.80;99.90;;;;;;5068364;28;20058;-76
2023/09/29 04:52:25;;;;;;;0.20;0.20;;;16.80;99.90;;;;;;5071260;28;20036;-76
2023/09/29 04:54:52;;;;;;;0.50;0.30;;;16.80;99.90;;;;;;5071111;28;20069;-77
2023/09/29 04:57:19;;;;;;;0.13;0.13;;;16.80;99.90;;;;;;5068800;28;20048;-76
2023/09/29 04:59:46;;;;;;;0.52;0.40;;;16.80;99.90;;;;;;5067075;28;20489;-78
2023/09/29 05:02:13;;;;;;;0.22;0.22;;;16.70;99.90;;;;;;5077461;28;20051;-77
2023/09/29 05:04:40;;;;;;;0.20;0.20;;;16.70;99.90;;;;;;5075833;28;20048;-77
2023/09/29 05:07:07;;;;;;;0.30;0.30;;;16.70;99.90;;;;;;5081770;28;20039;-78
2023/09/29 05:09:35;;;;;;;0.60;0.30;;;16.70;99.90;;;;;;5105702;28;20092;-77
2023/09/29 05:12:01;;;;;;;0.40;0.30;;;16.70;99.90;;;;;;5036552;28;20101;-77
2023/09/29 05:14:28;;;;;;;0.30;0.30;;;16.60;99.90;;;;;;5051737;28;20040;-77
2023/09/29 05:16:55;;;;;;;0.47;0.30;;;16.60;99.90;;;;;;5082194;28;20052;-76
2023/09/29 05:19:22;;;;;;;0.32;0.25;;;16.60;99.90;;;;;;5101823;28;20054;-76
2023/09/29 05:21:49;;;;;;;0.35;0.32;;;16.60;99.90;;;;;;5090063;28;20331;-76
2023/09/29 05:24:16;;;;;;;0.30;0.30;;;16.60;99.90;;;;;;5058330;28;20551;-76
2023/09/29 05:26:43;;;;;;;0.63;0.40;;;16.60;99.90;;;;;;5030201;28;20066;-76
2023/09/29 05:29:10;;;;;;;0.40;0.40;;;16.60;99.90;;;;;;5048549;28;20056;-76
2023/09/29 05:31:37;;;;;;;0.30;0.30;;;16.50;99.90;;;;;;5081100;28;20104;-76
2023/09/29 05:36:46;;;;;;;1.35;0.60;;;16.50;99.90;;;;;;1494499;26;20048;-85
2023/09/29 05:39:14;;;;;;;0.30;0.30;;;16.50;99.90;;;;;;5040009;28;20048;-82
2023/09/29 05:41:41;;;;;;;0.50;0.50;;;16.50;99.90;;;;;;5094533;28;20059;-88
2023/09/29 05:44:09;;;;;;;1.35;0.57;;;16.50;99.90;;;;;;5044982;28;20113;-82
2023/09/29 05:46:36;;;;;;;0.45;0.45;;;16.50;99.90;;;;;;5063855;28;20288;-83
2023/09/29 05:49:05;;;;;;;0.32;0.32;;;16.50;99.90;;;;;;5064722;28;20130;-88
2023/09/29 05:51:33;;;;;;;0.20;0.20;;;16.50;97.70;;;;;;5071724;28;20465;-87
2023/09/29 05:54:02;;;;;;;0.40;0.30;;;16.50;99.90;;;;;;5065274;28;20133;-87
2023/09/29 05:56:31;;;;;;;0.30;0.30;;;16.50;99.90;;;;;;5079680;28;20109;-82
2023/09/29 05:59:06;;;;;;;0.30;0.30;;;16.50;99.90;;;;;;5101882;28;20059;-86
2023/09/29 06:01:33;;;;;;;0.30;0.30;;;16.60;99.90;;;;;;5049314;28;20044;-90
2023/09/29 06:04:00;;;;;;;0.70;0.50;;;16.60;99.90;;;;;;5038176;28;20063;-88
2023/09/29 06:06:28;;;;;;;0.30;0.30;;;16.60;99.90;;;;;;5048175;28;20392;-86
2023/09/29 06:08:57;;;;;;;0.40;0.40;;;16.60;99.90;;;;;;5054273;28;20235;-83
2023/09/29 06:11:25;;;;;;;0.30;0.30;;;16.60;99.90;;;;;;5052040;28;20061;-86
2023/09/29 06:13:52;;;;;;;0.22;0.20;;;16.60;99.90;;;;;;5038316;28;20051;-83
2023/09/29 06:16:20;;;;;;;0.68;0.40;;;16.60;99.90;;;;;;5049017;28;20051;-83
2023/09/29 06:18:48;;;;;;;0.52;0.50;;;16.60;99.10;;;;;;5084506;28;20060;-87
2023/09/29 06:21:16;;;;;;;0.47;0.47;;;16.60;96.10;;;;;;5063924;28;20554;-86
2023/09/29 06:23:45;;;;;;;0.55;0.55;;;16.60;88.80;;;;;;5057303;28;20498;-86
2023/09/29 06:26:14;;;;;;;0.40;0.40;;;16.60;70.90;;;;;;5078862;28;21542;-83
2023/09/29 06:28:41;;;;;;;0.73;0.57;;;16.60;76.30;;;;;;5062161;28;20071;-88
2023/09/29 06:31:11;;;;;;;0.40;0.40;;;16.60;17.10;;;;;;5049490;28;20399;-87
2023/09/29 06:33:38;;;;;;;0.60;0.60;;;16.60;1.00;;;;;;5062306;28;20356;-87
2023/09/29 06:36:05;;;;;;;0.88;0.50;;;16.50;99.90;;;;;;5063910;28;20079;-87
2023/09/29 06:38:34;;;;;;;0.55;0.40;;;16.50;1.00;;;;;;5073871;28;20139;-80
2023/09/29 06:41:01;;;;;;;1.05;0.80;;;16.50;99.90;;;;;;5061192;28;20059;-82
2023/09/29 06:43:28;;;;;;;0.77;0.60;;;16.50;99.90;;;;;;5062757;28;20051;-88
2023/09/29 06:46:00;;;;;;;1.15;0.70;;;16.40;10.70;;;;;;5065389;28;20105;-88
2023/09/29 06:48:28;;;;;;;1.23;0.65;;;16.40;99.90;;;;;;5067602;28;20146;-84
2023/09/29 06:50:59;;;;;;;0.88;0.60;;;16.30;99.90;;;;;;5063970;28;20044;-82
2023/09/29 06:53:28;;;;;;;1.05;0.70;;;16.30;99.90;;;;;;5060901;28;20063;-87
2023/09/29 06:55:57;;;;;;;0.80;0.65;;;16.20;18.60;;;;;;5084043;28;20214;-87
2023/09/29 06:58:27;;;;;;;0.75;0.40;;;16.10;11.10;;;;;;5036741;28;20064;-89
2023/09/29 07:00:57;;;;;;;1.27;0.70;;;16.10;10.70;;;;;;5084164;28;20387;-90
2023/09/29 07:03:31;;;;;;;0.88;0.70;;;16.10;44.50;;;;;;5052865;28;20083;-91
2023/09/29 07:06:00;;;;;;;1.55;0.68;;;16.10;99.90;;;;;;5051404;28;20121;-87
2023/09/29 07:08:28;;;;;;;0.60;0.52;;;16.10;99.90;;;;;;5068439;28;20499;-89
2023/09/29 07:10:55;;;;;;;0.90;0.70;;;16.10;99.90;;;;;;5057436;28;20048;-88
2023/09/29 07:13:24;;;;;;;0.88;0.70;;;16.10;99.90;;;;;;5088020;28;20055;-88
2023/09/29 07:15:52;;;;;;;0.93;0.73;;;16.10;99.90;;;;;;5039427;28;20139;-90
2023/09/29 07:18:21;;;;;;;1.38;0.82;;;16.00;12.10;;;;;;5051808;28;20052;-91
2023/09/29 07:20:53;;;;;;;0.90;0.70;;;16.10;1.00;;;;;;5037373;28;20079;-86
2023/09/29 07:23:24;;;;;;;0.65;0.65;;;16.00;99.90;;;;;;5067425;28;20056;-91
2023/09/29 07:25:55;;;;;;;0.98;0.73;;;16.00;99.90;;;;;;5071631;28;20056;-86
2023/09/29 07:28:22;;;;;;;0.80;0.73;;;16.10;99.90;;;;;;5084082;28;20047;-88
2023/09/29 07:30:53;;;;;;;0.75;0.75;;;16.10;99.90;;;;;;5062720;28;20151;-82
2023/09/29 07:33:20;;;;;;;0.70;0.45;;;16.10;1.00;;;;;;5066407;28;20510;-87
2023/09/29 07:35:48;;;;;;;0.90;0.50;;;16.20;1.00;;;;;;5049657;28;20052;-87
2023/09/29 07:38:19;;;;;;;1.27;0.50;;;16.30;99.90;;;;;;5069450;28;20519;-88
2023/09/29 07:40:47;;;;;;;0.68;0.60;;;16.30;99.90;;;;;;5046487;28;20134;-86
2023/09/29 07:43:15;;;;;;;0.77;0.60;;;16.40;15.00;;;;;;5072323;28;20051;-84
2023/09/29 07:45:44;;;;;;;1.02;0.80;;;16.30;99.90;;;;;;5082409;28;20056;-87
2023/09/29 07:48:16;;;;;;;0.98;0.63;;;16.40;99.90;;;;;;5056246;28;20047;-86
2023/09/29 07:50:45;;;;;;;0.75;0.45;;;16.50;1.00;;;;;;5069278;28;20520;-89
2023/09/29 07:53:13;;;;;;;1.35;0.82;;;16.50;99.90;;;;;;5054227;28;20375;-87
2023/09/29 07:55:40;;;;;;;0.65;0.57;;;16.40;99.90;;;;;;5051197;28;20070;-84
2023/09/29 07:58:12;;;;;;;0.85;0.52;;;16.40;11.10;;;;;;5043895;28;20215;-90
2023/09/29 08:00:40;;;;;;;0.55;0.47;;;16.50;1.00;;;;;;5057236;28;20073;-88
2023/09/29 08:03:07;;;;;;;0.60;0.47;;;16.50;99.90;;;;;;5057665;28;20055;-88
2023/09/29 08:05:36;;;;;;;0.95;0.40;;;16.50;1.00;;;;;;5070055;28;20070;-93
2023/09/29 08:08:07;;;;;;;0.95;0.60;;;16.50;99.90;;;;;;5048465;28;20055;-92
2023/09/29 08:10:35;;;;;;;0.80;0.60;;;16.50;1.00;;;;;;5040151;28;20054;-91
2023/09/29 08:13:02;;;;;;;0.90;0.60;;;16.40;1.00;;;;;;5040862;28;20135;-93
2023/09/29 08:15:29;;;;;;;0.85;0.70;;;16.40;1.00;;;;;;5062691;28;20079;-85
2023/09/29 08:17:56;;;;;;;0.70;0.50;;;16.40;1.00;;;;;;5072994;28;20055;-88
2023/09/29 08:20:24;;;;;;;0.55;0.50;;;16.40;99.90;;;;;;5053276;28;20101;-86
2023/09/29 08:22:51;;;;;;;1.25;0.82;;;16.40;99.90;;;;;;5053111;28;20474;-86
2023/09/29 08:25:20;;;;;;;0.80;0.60;;;16.40;99.90;;;;;;5086679;28;20051;-87
2023/09/29 08:27:50;;;;;;;0.98;0.52;;;16.40;99.90;;;;;;5053722;28;20051;-88
2023/09/29 08:30:17;;;;;;;0.82;0.60;;;16.50;99.90;;;;;;5053897;28;20130;-87
2023/09/29 08:32:44;;;;;;;0.63;0.43;;;16.60;99.90;;;;;;5049068;28;20040;-84
2023/09/29 08:35:13;;;;;;;0.98;0.60;;;16.70;99.90;;;;;;5063823;28;20048;-83
2023/09/29 08:37:42;;;;;;;0.73;0.60;;;16.80;99.90;;;;;;5048187;28;20080;-84
2023/09/29 08:40:10;;;;;;;0.80;0.50;;;16.90;99.90;;;;;;5069824;28;20272;-89
2023/09/29 08:42:37;;;;;;;0.70;0.50;;;17.00;99.90;;;;;;5049544;28;20049;-89
2023/09/29 08:45:10;;;;;;;0.95;0.60;;;17.10;99.90;;;;;;5048993;28;20068;-84
2023/09/29 08:47:40;;;;;;;0.47;0.47;;;17.20;99.90;;;;;;5049102;28;20068;-87
2023/09/29 08:50:09;;;;;;;0.50;0.47;;;17.20;99.90;;;;;;5069237;28;20060;-86
2023/09/29 08:52:37;;;;;;;0.50;0.47;;;17.40;99.90;;;;;;5062928;28;20060;-83
2023/09/29 08:55:06;;;;;;;1.38;0.50;;;17.40;96.30;;;;;;5065386;28;20749;-84
2023/09/29 08:57:34;;;;;;;0.40;0.40;;;17.50;86.80;;;;;;5082367;28;20076;-82
2023/09/29 09:00:03;;;;;;;1.45;0.63;;;17.60;81.00;;;;;;5064666;28;20059;-84
2023/09/29 09:02:31;;;;;;;1.58;0.70;;;17.60;47.50;;;;;;5065835;28;20135;-86
2023/09/29 09:04:58;;;;;;;0.88;0.73;;;17.50;1.00;;;;;;5048184;28;20459;-86
2023/09/29 09:07:29;;;;;;;1.42;0.90;;;17.40;1.00;;;;;;5051552;28;20055;-90
2023/09/29 09:09:58;;;;;;;1.90;0.80;;;17.40;1.00;;;;;;5068203;28;20144;-88
2023/09/29 09:12:33;;;;;;;1.55;0.88;;;17.40;1.00;;;;;;5065496;28;20060;-83
2023/09/29 09:15:00;;;;;;;1.20;0.80;;;17.50;1.00;;;;;;5038369;28;20052;-87
2023/09/29 09:17:28;;;;;;;0.80;0.70;;;17.70;1.00;;;;;;5047636;28;20406;-85
2023/09/29 09:19:56;;;;;;;0.95;0.50;;;17.80;1.00;;;;;;5075004;28;20055;-85
2023/09/29 09:22:27;;;;;;;1.40;0.88;;;17.80;1.00;;;;;;5051635;28;20465;-89
2023/09/29 09:25:12;;;;;;;2.30;0.90;;;17.60;1.00;;;;;;5063968;28;20045;-89
2023/09/29 09:27:41;;;;;;;2.17;1.05;;;17.40;1.00;;;;;;5086186;28;20067;-90
2023/09/29 09:30:22;;;;;;;1.33;0.90;;;17.40;1.00;;;;;;5076565;28;20048;-85
2023/09/29 09:32:49;;;;;;;1.65;0.73;;;17.40;1.00;;;;;;5066080;28;20076;-88
2023/09/29 09:35:27;;;;;;;1.38;0.88;;;17.50;1.00;;;;;;5049733;28;20055;-89
2023/09/29 09:37:56;;;;;;;1.23;0.70;;;17.40;1.00;;;;;;5072670;28;20166;-82
2023/09/29 09:40:26;;;;;;;1.33;0.60;;;17.50;1.00;;;;;;5099190;28;20530;-90
2023/09/29 09:42:54;;;;;;;0.93;0.70;;;17.50;1.00;;;;;;5063097;28;20059;-91
2023/09/29 09:45:24;;;;;;;1.02;0.77;;;17.60;1.00;;;;;;5062951;28;20052;-86
2023/09/29 09:47:58;;;;;;;1.30;1.00;;;17.70;1.00;;;;;;5067119;28;20048;-85
2023/09/29 09:50:28;;;;;;;1.02;0.80;;;17.80;1.00;;;;;;5061577;28;20155;-88
2023/09/29 09:52:55;;;;;;;1.17;0.77;;;17.80;1.00;;;;;;5046507;28;20055;-85
2023/09/29 09:55:46;;;;;;;0.77;0.60;;;17.70;1.00;;;;;;5082484;28;20044;-89
2023/09/29 09:58:14;;;;;;;0.90;0.50;;;17.70;1.00;;;;;;5079978;28;20044;-86
2023/09/29 10:00:46;;;;;;;1.13;0.98;;;17.80;1.00;;;;;;5087877;28;20075;-83
2023/09/29 10:03:16;;;;;;;1.40;0.93;;;17.80;1.00;;;;;;5069126;28;20052;-83
2023/09/29 10:05:51;;;;;;;1.80;1.13;;;17.80;1.00;;;;;;5047831;28;20045;-85
2023/09/29 10:08:31;;;;;;;1.45;0.80;;;17.80;1.00;;;;;;5049600;28;20064;-86
2023/09/29 10:11:12;;;;;;;1.63;0.90;;;17.80;1.00;;;;;;5048577;28;20056;-90
2023/09/29 10:13:42;;;;;;;0.90;0.70;;;17.70;1.00;;;;;;5053237;28;20056;-84
2023/09/29 10:16:22;;;;;;;1.65;1.10;;;17.80;1.00;;;;;;5080651;28;20056;-85
2023/09/29 10:19:00;;;;;;;1.20;0.93;;;17.80;1.00;;;;;;5050161;28;20067;-89
2023/09/29 10:21:33;;;;;;;1.67;1.02;;;17.90;1.00;;;;;;5048232;28;20143;-88
2023/09/29 10:24:05;;;;;;;1.52;1.00;;;18.00;1.00;;;;;;5043262;28;20044;-88
2023/09/29 10:26:46;;;;;;;1.00;0.90;;;18.00;1.00;;;;;;5068098;28;20060;-87
2023/09/29 10:29:24;;;;;;;2.05;1.33;;;18.10;1.00;;;;;;5069694;28;20055;-83
2023/09/29 10:31:53;;;;;;;1.00;0.70;;;18.20;1.00;;;;;;5074780;28;20114;-86
2023/09/29 10:34:32;;;;;;;;;;;;;;;;;;;;;
2023/09/29 10:37:03;;;;;;;2.35;1.20;;;18.40;1.00;;;;;;5081848;28;20048;-82
2023/09/29 10:39:30;;;;;;;2.45;1.40;;;18.30;1.00;;;;;;5073504;28;20506;-83
2023/09/29 10:42:12;;;;;;;2.40;1.30;;;18.30;1.00;;;;;;5085430;28;20052;-82
2023/09/29 10:44:52;;;;;;;2.03;1.40;;;18.30;1.00;;;;;;5065699;28;20560;-81
2023/09/29 10:47:36;;;;;;;2.72;1.23;;;18.30;1.00;;;;;;5083223;28;20524;-83
2023/09/29 10:50:06;;;;;;;1.77;1.13;;;18.30;1.00;;;;;;5060026;28;20070;-85
2023/09/29 10:52:36;;;;;;;2.67;1.30;;;18.30;1.00;;;;;;5047502;28;20416;-85
2023/09/29 10:55:05;;;;;;;1.48;0.93;;;18.30;1.00;;;;;;5063815;28;20738;-83
2023/09/29 10:57:33;;;;;;;2.00;1.15;;;18.30;1.00;;;;;;5042783;28;20075;-84
2023/09/29 11:00:00;;;;;;;3.33;1.65;;;18.40;1.00;;;;;;5067278;28;20060;-84
2023/09/29 11:02:30;;;;;;;2.35;1.30;;;18.40;1.00;;;;;;5062924;28;20056;-84
2023/09/29 11:05:02;;;;;;;2.95;1.90;;;18.40;1.00;;;;;;5047219;28;20075;-82
2023/09/29 11:07:48;;;;;;;2.72;1.50;;;18.40;1.00;;;;;;5046337;28;21841;-87
2023/09/29 11:10:17;;;;;;;3.13;1.55;;;18.50;1.00;;;;;;5065326;28;20590;-83
2023/09/29 11:12:46;;;;;;;2.08;1.38;;;18.60;1.00;;;;;;5063688;28;20419;-83
2023/09/29 11:15:17;;;;;;;1.70;1.05;;;18.70;1.00;;;;;;5045613;28;20060;-84
2023/09/29 11:17:50;;;;;;;2.53;1.45;;;18.80;1.00;;;;;;5068748;28;20120;-84
2023/09/29 11:20:29;;;;;;;2.10;1.30;;;19.00;1.00;;;;;;5066042;28;20052;-85
2023/09/29 11:23:11;;;;;;;2.38;1.23;;;19.20;1.00;;;;;;5049091;28;20643;-83
2023/09/29 11:25:54;;;;;;;4.50;1.33;;;19.30;1.00;;;;;;5055280;28;20047;-89
2023/09/29 11:28:22;;;;;;;3.78;2.33;;;19.30;1.00;;;;;;5073536;28;20052;-87
2023/09/29 11:30:49;;;;;;;3.22;1.60;;;19.30;1.00;;;;;;5058087;28;20056;-87
2023/09/29 11:33:25;;;;;;;1.80;1.40;;;19.30;1.00;;;;;;5063445;28;20076;-85
2023/09/29 11:35:52;;;;;;;1.92;1.23;;;19.30;1.00;;;;;;5062663;28;20058;-88
2023/09/29 11:38:40;;;;;;;2.25;1.60;;;19.40;1.00;;;;;;5063824;28;20130;-83
2023/09/29 11:41:08;;;;;;;3.05;1.67;;;19.60;1.00;;;;;;5085281;28;20140;-90
2023/09/29 11:43:38;;;;;;;2.78;1.70;;;19.60;1.00;;;;;;5084552;28;20398;-84
2023/09/29 11:46:05;;;;;;;2.28;1.45;;;19.70;1.00;;;;;;5062433;28;20045;-83
2023/09/29 11:48:33;;;;;;;2.15;1.25;;;19.70;1.00;;;;;;5060644;28;20048;-86
2023/09/29 11:51:03;;;;;;;2.05;1.13;;;19.80;1.00;;;;;;5068361;28;20167;-85
2023/09/29 11:53:31;;;;;;;2.00;1.30;;;19.90;1.00;;;;;;5063970;28;20155;-83
2023/09/29 11:55:58;;;;;;;2.28;1.23;;;20.20;1.00;;;;;;5067716;28;20072;-83
2023/09/29 11:58:29;;;;;;;2.97;1.55;;;20.30;1.00;;;;;;5055348;28;20154;-84
2023/09/29 12:00:56;;;;;;;3.22;1.95;;;20.40;1.00;;;;;;5055158;28;20119;-83
2023/09/29 12:03:29;;;;;;;3.17;1.90;;;20.40;1.00;;;;;;5048516;28;20480;-87
2023/09/29 12:05:58;;;;;;;;;;;20.70;1.00;;;;;;5067388;28;20048;-81
2023/09/29 12:08:26;;;;;;;3.53;1.98;;;20.70;1.00;;;;;;5064953;28;20302;-84
2023/09/29 12:10:54;;;;;;;2.97;2.03;;;20.90;1.00;;;;;;5068013;28;20048;-82
2023/09/29 12:13:21;;;;;;;2.70;1.73;;;20.80;1.00;;;;;;5066037;28;20052;-87
2023/09/29 12:15:50;;;;;;;3.60;1.88;;;21.00;1.00;;;;;;5060868;28;20054;-88
2023/09/29 12:18:17;;;;;;;3.70;1.85;;;21.00;1.00;;;;;;5069763;28;20063;-83
2023/09/29 12:20:45;;;;;;;3.00;1.75;;;21.00;1.00;;;;;;5067697;28;20052;-85
2023/09/29 12:23:13;;;;;;;2.92;1.75;;;21.20;1.00;;;;;;5066764;28;20052;-83
2023/09/29 12:25:40;;;;;;;2.67;1.77;;;21.40;1.00;;;;;;5068845;28;20059;-85
2023/09/29 12:28:07;;;;;;;3.08;1.42;;;21.60;1.00;;;;;;5084691;28;20063;-84
2023/09/29 12:30:35;;;;;;;3.25;2.00;;;21.80;1.00;;;;;;5053538;28;20056;-85
2023/09/29 12:33:03;;;;;;;2.78;1.67;;;21.80;1.00;;;;;;5051521;28;20048;-89
2023/09/29 12:35:33;;;;;;;2.20;1.27;;;21.90;1.00;;;;;;5061885;28;20445;-88
2023/09/29 12:38:00;;;;;;;2.50;1.38;;;22.20;1.00;;;;;;5064691;28;20060;-85
2023/09/29 12:40:27;;;;;;;2.90;1.50;;;22.30;1.00;;;;;;5056819;28;20062;-83
2023/09/29 12:42:54;;;;;;;3.55;1.85;;;22.20;1.00;;;;;;5065874;28;20211;-90
2023/09/29 12:45:23;;;;;;;2.97;1.80;;;22.10;1.00;;;;;;5079161;28;20093;-90
2023/09/29 12:47:52;;;;;;;3.78;1.60;;;22.10;1.00;;;;;;5051444;28;20052;-84
2023/09/29 12:50:21;;;;;;;3.75;1.70;;;22.20;1.00;;;;;;5051762;28;20101;-89
2023/09/29 12:52:52;;;;;;;3.70;1.60;;;22.20;1.00;;;;;;5056674;28;20457;-82
2023/09/29 12:55:19;;;;;;;2.85;1.65;;;22.20;1.00;;;;;;5053857;28;20063;-84
2023/09/29 12:57:47;;;;;;;2.60;1.58;;;22.40;1.00;;;;;;5062776;28;20052;-84
2023/09/29 13:00:19;;;;;;;4.28;2.17;;;22.60;1.00;;;;;;5082161;28;20109;-87
2023/09/29 13:02:47;;;;;;;;;;;22.70;1.00;;;;;;5069242;28;20120;-87
2023/09/29 13:05:15;;;;;;;2.45;1.35;;;22.80;1.00;;;;;;5083583;28;19995;-83
2023/09/29 13:07:42;;;;;;;2.45;1.58;;;23.00;1.00;;;;;;5077574;28;20132;-84